Time;durP1;ratioP1;P1;durP2;ratioP2;P2;SDS_P1;SDS_P2;PMS_P1;PMS_P2;Temp;Humidity;BMP_temperature;BMP_pressure;BME280_temperature;BME280_humidity;BME280_pressure;Samples;Min_cycle;Max_cycle;Signal;HPM_P1;HPM_P2
2022/09/10 00:00:01;;;;;;;3.63;1.83;;;22.80;99.90;;;;;;5035400;28;20043;-70
2022/09/10 00:02:26;;;;;;;5.80;1.52;;;22.90;99.90;;;;;;5035382;28;20026;-67
2022/09/10 00:04:52;;;;;;;2.53;1.40;;;22.90;99.90;;;;;;5017407;28;20022;-69
2022/09/10 00:07:18;;;;;;;1.67;1.50;;;22.90;99.90;;;;;;5035256;28;20034;-69
2022/09/10 00:09:44;;;;;;;6.25;1.75;;;22.80;99.90;;;;;;5035116;28;20101;-71
2022/09/10 00:12:10;;;;;;;4.25;1.50;;;22.80;99.90;;;;;;5035141;28;20025;-68
2022/09/10 00:14:36;;;;;;;1.65;1.50;;;22.80;99.90;;;;;;5017292;28;20065;-70
2022/09/10 00:17:04;;;;;;;2.17;1.52;;;22.80;99.90;;;;;;5034985;28;20120;-67
2022/09/10 00:19:30;;;;;;;1.42;1.30;;;22.80;99.90;;;;;;5034913;28;20028;-69
2022/09/10 00:21:56;;;;;;;1.50;1.25;;;22.70;99.90;;;;;;5033710;28;20395;-70
2022/09/10 00:24:22;;;;;;;4.22;1.75;;;22.70;99.90;;;;;;5017053;28;20022;-70
2022/09/10 00:26:49;;;;;;;2.70;1.70;;;22.70;99.90;;;;;;5034979;28;20040;-69
2022/09/10 00:29:16;;;;;;;5.13;1.50;;;22.70;99.90;;;;;;5017110;28;20021;-67
2022/09/10 00:31:42;;;;;;;1.90;1.45;;;22.70;99.90;;;;;;5016968;28;20025;-69
2022/09/10 00:34:10;;;;;;;1.45;1.35;;;22.60;99.90;;;;;;5034346;28;20022;-69
2022/09/10 00:36:39;;;;;;;2.85;1.55;;;22.60;99.90;;;;;;5016883;28;20435;-67
2022/09/10 00:39:14;;;;;;;2.90;1.45;;;22.70;99.90;;;;;;5017052;28;20487;-71
2022/09/10 00:41:43;;;;;;;0.88;0.88;;;22.70;99.90;;;;;;5034476;28;20017;-69
2022/09/10 00:44:36;;;;;;;0.80;0.80;;;22.60;99.90;;;;;;5034664;28;20434;-71
2022/09/10 00:47:03;;;;;;;;;;;22.60;99.90;;;;;;5017161;28;20384;-70
2022/09/10 00:49:37;;;;;;;1.27;1.10;;;22.70;99.90;;;;;;5034800;28;19905;-66
2022/09/10 00:52:05;;;;;;;1.85;1.50;;;22.60;99.90;;;;;;5016560;28;20043;-68
2022/09/10 00:54:34;;;;;;;2.95;1.45;;;22.60;99.90;;;;;;5016918;28;20021;-70
2022/09/10 00:57:05;;;;;;;2.00;1.50;;;22.50;99.90;;;;;;5016731;28;20042;-69
2022/09/10 00:59:32;;;;;;;2.30;1.27;;;22.50;99.90;;;;;;5034500;28;20025;-67
2022/09/10 01:01:58;;;;;;;2.67;1.50;;;22.60;99.90;;;;;;5034217;28;20056;-67
2022/09/10 01:04:25;;;;;;;2.53;1.45;;;22.60;99.90;;;;;;5034187;28;20120;-67
2022/09/10 01:06:51;;;;;;;1.70;1.40;;;22.60;99.90;;;;;;5016131;28;20030;-70
2022/09/10 01:09:20;;;;;;;2.30;1.25;;;22.60;99.90;;;;;;5034045;28;20025;-69
2022/09/10 01:12:08;;;;;;;3.30;1.45;;;22.60;99.90;;;;;;5016426;28;20028;-70
2022/09/10 01:14:56;;;;;;;9.55;2.22;;;22.50;99.90;;;;;;5003261;28;20033;-68
2022/09/10 01:17:50;;;;;;;2.88;1.52;;;22.60;99.90;;;;;;5016043;28;20044;-69
2022/09/10 01:20:29;;;;;;;3.00;1.42;;;22.50;99.90;;;;;;5016449;28;20036;-69
2022/09/10 01:23:26;;;;;;;6.70;1.85;;;22.50;99.90;;;;;;5016348;28;20033;-71
2022/09/10 01:25:55;;;;;;;5.53;1.52;;;22.50;99.90;;;;;;5016278;28;20060;-71
2022/09/10 01:28:53;;;;;;;2.35;1.42;;;22.40;99.90;;;;;;5016099;28;20025;-69
2022/09/10 01:31:27;;;;;;;27.35;3.55;;;22.30;99.90;;;;;;5034201;28;20033;-68
2022/09/10 01:34:03;;;;;;;1.63;1.40;;;22.30;99.90;;;;;;5016344;28;20021;-69
2022/09/10 01:36:34;;;;;;;5.60;1.55;;;22.30;99.90;;;;;;5015887;28;20065;-68
2022/09/10 01:39:01;;;;;;;2.83;1.40;;;22.20;99.90;;;;;;5033573;28;20017;-68
2022/09/10 01:41:27;;;;;;;4.68;1.67;;;22.20;99.90;;;;;;5015956;28;20051;-70
2022/09/10 01:43:53;;;;;;;2.25;1.63;;;22.20;99.90;;;;;;5033448;28;20060;-68
2022/09/10 01:46:43;;;;;;;6.00;1.50;;;22.20;99.90;;;;;;5033617;28;20422;-68
2022/09/10 01:49:31;;;;;;;1.90;1.80;;;22.20;99.90;;;;;;5033425;28;20433;-69
2022/09/10 01:52:36;;;;;;;3.58;1.92;;;22.20;99.90;;;;;;5033597;28;20029;-70
2022/09/10 01:55:21;;;;;;;2.58;1.35;;;22.20;99.90;;;;;;5015828;28;20029;-71
2022/09/10 01:58:16;;;;;;;1.45;1.33;;;22.20;99.90;;;;;;5015532;28;20476;-67
2022/09/10 02:00:52;;;;;;;8.13;2.13;;;22.20;99.90;;;;;;5015482;28;20053;-71
2022/09/10 02:03:25;;;;;;;4.57;2.40;;;22.10;99.90;;;;;;5016006;28;20032;-70
2022/09/10 02:05:53;;;;;;;5.60;1.90;;;22.00;99.90;;;;;;5015691;28;20080;-68
2022/09/10 02:08:29;;;;;;;10.70;2.35;;;21.90;99.90;;;;;;5015589;28;20076;-70
2022/09/10 02:10:59;;;;;;;1.75;1.65;;;21.80;99.90;;;;;;5015491;28;20026;-67
2022/09/10 02:13:28;;;;;;;2.35;1.30;;;21.80;99.90;;;;;;5033377;28;20472;-69
2022/09/10 02:15:55;;;;;;;3.45;1.15;;;21.90;99.90;;;;;;5015815;28;20033;-70
2022/09/10 02:18:22;;;;;;;1.55;1.33;;;22.00;99.90;;;;;;5032987;28;20049;-68
2022/09/10 02:20:52;;;;;;;1.38;1.27;;;22.00;99.90;;;;;;5015668;28;20492;-68
2022/09/10 02:23:23;;;;;;;1.83;1.73;;;21.90;99.90;;;;;;5015817;28;20021;-68
2022/09/10 02:25:49;;;;;;;2.28;1.55;;;21.90;99.90;;;;;;5032993;28;20021;-70
2022/09/10 02:28:15;;;;;;;1.35;1.20;;;21.90;99.90;;;;;;5033078;28;20026;-69
2022/09/10 02:30:41;;;;;;;1.65;1.30;;;21.90;99.90;;;;;;5015308;28;20033;-69
2022/09/10 02:33:06;;;;;;;1.65;1.20;;;21.90;99.90;;;;;;5032992;28;20032;-70
2022/09/10 02:35:32;;;;;;;1.23;1.13;;;21.90;99.90;;;;;;5032961;28;20031;-69
2022/09/10 02:37:58;;;;;;;3.00;1.60;;;21.80;99.90;;;;;;5015257;28;20033;-70
2022/09/10 02:40:24;;;;;;;1.45;1.35;;;21.70;99.90;;;;;;5032876;28;20026;-68
2022/09/10 02:42:50;;;;;;;3.53;1.17;;;21.70;99.90;;;;;;5015462;28;20025;-68
2022/09/10 02:45:15;;;;;;;1.35;1.25;;;21.70;99.90;;;;;;5015578;28;20022;-68
2022/09/10 02:47:41;;;;;;;2.20;1.85;;;21.70;99.90;;;;;;5015095;28;20013;-68
2022/09/10 02:50:08;;;;;;;5.05;1.80;;;21.70;99.90;;;;;;5014832;28;20026;-70
2022/09/10 02:52:34;;;;;;;4.95;1.80;;;21.80;99.90;;;;;;5032860;28;20026;-69
2022/09/10 02:55:00;;;;;;;4.80;2.22;;;21.70;99.90;;;;;;5032624;28;20018;-70
2022/09/10 02:57:26;;;;;;;4.53;2.50;;;21.60;99.90;;;;;;5018793;28;20124;-69
2022/09/10 02:59:55;;;;;;;7.07;4.25;;;21.60;99.90;;;;;;5019190;28;20108;-69
2022/09/10 03:02:21;;;;;;;2.50;2.30;;;21.50;99.90;;;;;;5019118;28;20121;-68
2022/09/10 03:04:47;;;;;;;2.58;2.38;;;21.50;99.90;;;;;;5018820;28;20025;-69
2022/09/10 03:07:18;;;;;;;3.08;2.78;;;21.50;99.90;;;;;;5019040;28;20025;-69
2022/09/10 03:09:45;;;;;;;4.75;2.50;;;21.40;99.90;;;;;;5019069;28;20091;-71
2022/09/10 03:12:11;;;;;;;2.63;2.33;;;21.40;99.90;;;;;;5018804;28;20037;-70
2022/09/10 03:14:37;;;;;;;4.85;2.90;;;21.40;99.90;;;;;;5019010;28;20041;-68
2022/09/10 03:17:02;;;;;;;9.18;4.43;;;21.40;99.90;;;;;;5018308;28;20041;-66
2022/09/10 03:19:28;;;;;;;14.90;6.85;;;21.30;99.90;;;;;;5036124;28;20032;-67
2022/09/10 03:21:54;;;;;;;11.77;6.25;;;21.30;99.90;;;;;;5036318;28;20017;-68
2022/09/10 03:24:21;;;;;;;17.38;9.10;;;21.30;99.90;;;;;;5018354;28;20476;-70
2022/09/10 03:26:47;;;;;;;12.73;6.10;;;21.30;99.90;;;;;;5018541;28;20025;-68
2022/09/10 03:29:14;;;;;;;16.77;8.10;;;21.30;99.90;;;;;;5035948;28;20036;-70
2022/09/10 03:31:40;;;;;;;15.70;8.43;;;21.30;99.90;;;;;;5035754;28;20464;-70
2022/09/10 03:34:05;;;;;;;25.55;13.43;;;21.30;99.90;;;;;;5035967;28;20030;-68
2022/09/10 03:36:31;;;;;;;15.07;8.18;;;21.30;99.90;;;;;;5035601;28;20018;-70
2022/09/10 03:39:00;;;;;;;12.55;7.90;;;21.20;99.90;;;;;;5017967;28;20025;-70
2022/09/10 03:41:27;;;;;;;14.40;8.35;;;21.30;99.90;;;;;;5018441;28;20353;-70
2022/09/10 03:43:53;;;;;;;16.05;8.93;;;21.40;99.90;;;;;;5018213;28;20029;-69
2022/09/10 03:46:21;;;;;;;18.85;10.38;;;21.50;99.90;;;;;;5035604;28;20491;-71
2022/09/10 03:48:47;;;;;;;19.90;9.90;;;21.50;99.90;;;;;;5035687;28;20028;-68
2022/09/10 03:51:14;;;;;;;12.00;8.10;;;21.40;99.90;;;;;;5035782;28;20025;-68
2022/09/10 03:53:42;;;;;;;14.80;8.90;;;21.40;99.90;;;;;;5018353;28;20026;-67
2022/09/10 03:56:11;;;;;;;14.35;7.93;;;21.60;99.90;;;;;;5017655;28;20049;-71
2022/09/10 03:58:37;;;;;;;10.88;7.40;;;21.60;99.90;;;;;;5017990;28;20032;-69
2022/09/10 04:01:03;;;;;;;15.25;7.95;;;21.70;99.90;;;;;;5035674;28;20049;-72
2022/09/10 04:03:29;;;;;;;12.32;7.05;;;21.70;99.90;;;;;;5017939;28;20017;-71
2022/09/10 04:05:55;;;;;;;14.43;8.65;;;21.70;99.90;;;;;;5017827;28;20026;-68
2022/09/10 04:08:20;;;;;;;18.00;9.57;;;21.70;99.90;;;;;;5035297;28;20056;-67
2022/09/10 04:10:47;;;;;;;10.43;7.70;;;21.70;99.90;;;;;;5035191;28;20033;-70
2022/09/10 04:13:13;;;;;;;6.97;6.07;;;21.50;99.90;;;;;;5035181;28;20487;-67
2022/09/10 04:15:39;;;;;;;7.45;5.90;;;21.50;99.90;;;;;;5034956;28;20067;-69
2022/09/10 04:18:05;;;;;;;6.72;4.78;;;21.40;99.90;;;;;;5017326;28;20053;-71
2022/09/10 04:20:32;;;;;;;6.15;4.65;;;21.40;99.90;;;;;;5034944;28;20028;-70
2022/09/10 04:22:59;;;;;;;4.82;3.55;;;21.40;99.90;;;;;;5017803;28;20013;-69
2022/09/10 04:25:25;;;;;;;4.57;3.22;;;21.50;99.90;;;;;;5017701;28;20472;-68
2022/09/10 04:27:50;;;;;;;3.17;2.88;;;21.50;99.90;;;;;;5017475;28;20494;-69
2022/09/10 04:30:17;;;;;;;3.45;2.97;;;21.50;99.90;;;;;;5034794;28;20025;-70
2022/09/10 04:32:43;;;;;;;3.67;2.70;;;21.60;99.90;;;;;;5034784;28;20026;-70
2022/09/10 04:35:10;;;;;;;7.05;3.97;;;21.60;99.90;;;;;;5034748;28;20024;-69
2022/09/10 04:37:35;;;;;;;3.60;2.83;;;21.60;99.90;;;;;;5035151;28;20021;-71
2022/09/10 04:40:02;;;;;;;3.05;2.70;;;21.60;99.90;;;;;;5016841;28;20502;-70
2022/09/10 04:42:30;;;;;;;3.17;2.88;;;21.60;99.90;;;;;;5033752;28;20491;-69
2022/09/10 04:44:56;;;;;;;2.67;2.38;;;21.70;99.90;;;;;;5016641;28;20029;-69
2022/09/10 04:47:22;;;;;;;2.55;2.13;;;21.70;99.90;;;;;;5016765;28;20472;-70
2022/09/10 04:49:48;;;;;;;3.80;2.10;;;21.80;99.90;;;;;;5034453;28;20100;-71
2022/09/10 04:52:15;;;;;;;3.03;1.90;;;21.70;99.90;;;;;;5034318;28;20037;-69
2022/09/10 04:54:42;;;;;;;2.25;1.52;;;21.70;99.90;;;;;;5034519;28;20027;-69
2022/09/10 04:57:07;;;;;;;2.05;1.85;;;21.70;99.90;;;;;;5016600;28;20037;-70
2022/09/10 04:59:33;;;;;;;2.08;1.50;;;21.70;99.90;;;;;;5016733;28;20021;-71
2022/09/10 05:02:00;;;;;;;1.92;1.80;;;21.70;99.90;;;;;;5034641;28;20020;-68
2022/09/10 05:04:26;;;;;;;2.13;1.50;;;21.70;99.90;;;;;;5016691;28;20026;-70
2022/09/10 05:06:52;;;;;;;1.90;1.13;;;21.70;99.90;;;;;;5016675;28;20028;-67
2022/09/10 05:09:19;;;;;;;2.45;1.27;;;21.80;99.90;;;;;;5016416;28;20021;-70
2022/09/10 05:11:48;;;;;;;1.65;1.17;;;21.80;99.90;;;;;;5034347;28;20025;-67
2022/09/10 05:14:15;;;;;;;3.20;1.83;;;21.80;99.90;;;;;;5016433;28;20036;-70
2022/09/10 05:16:42;;;;;;;2.53;1.27;;;21.70;99.90;;;;;;5033931;28;20104;-70
2022/09/10 05:19:07;;;;;;;1.52;1.33;;;21.50;99.90;;;;;;5033548;28;20017;-67
2022/09/10 05:21:33;;;;;;;1.73;1.35;;;21.60;99.90;;;;;;5033836;28;20028;-68
2022/09/10 05:23:59;;;;;;;1.83;1.50;;;21.60;99.90;;;;;;5033988;28;20014;-68
2022/09/10 05:26:26;;;;;;;1.55;1.40;;;21.50;99.90;;;;;;5033747;28;20050;-70
2022/09/10 05:28:52;;;;;;;1.30;1.20;;;21.50;99.90;;;;;;5015916;28;20025;-67
2022/09/10 05:31:18;;;;;;;1.42;1.33;;;21.50;99.90;;;;;;5033776;28;20091;-70
2022/09/10 05:33:45;;;;;;;3.25;1.65;;;21.40;99.90;;;;;;5033814;28;20029;-68
2022/09/10 05:36:10;;;;;;;1.85;1.65;;;21.30;99.90;;;;;;5033608;28;20026;-69
2022/09/10 05:38:36;;;;;;;2.17;1.00;;;21.20;99.90;;;;;;5033444;28;20026;-68
2022/09/10 05:41:02;;;;;;;1.17;1.08;;;21.30;99.90;;;;;;5033625;28;20021;-68
2022/09/10 05:43:28;;;;;;;2.28;0.98;;;21.20;99.90;;;;;;5033350;28;20537;-68
2022/09/10 05:45:53;;;;;;;1.27;0.77;;;21.30;99.90;;;;;;5033562;28;20044;-67
2022/09/10 05:48:20;;;;;;;0.70;0.70;;;21.30;99.90;;;;;;5033499;28;20084;-69
2022/09/10 05:50:45;;;;;;;1.00;0.90;;;21.40;99.90;;;;;;5033563;28;20104;-68
2022/09/10 05:53:11;;;;;;;0.80;0.80;;;21.50;99.90;;;;;;5015586;28;20108;-71
2022/09/10 05:55:37;;;;;;;1.70;0.88;;;21.50;99.90;;;;;;5033236;28;20045;-71
2022/09/10 05:58:03;;;;;;;0.57;0.57;;;21.50;99.90;;;;;;5033291;28;20069;-66
2022/09/10 06:00:29;;;;;;;0.88;0.70;;;21.60;99.90;;;;;;5033287;28;20022;-67
2022/09/10 06:02:56;;;;;;;0.73;0.50;;;21.70;99.90;;;;;;5015894;28;20030;-67
2022/09/10 06:05:22;;;;;;;0.82;0.60;;;21.80;99.90;;;;;;5015994;28;20030;-69
2022/09/10 06:07:48;;;;;;;0.60;0.60;;;21.90;99.90;;;;;;5015531;28;20029;-70
2022/09/10 06:10:15;;;;;;;0.60;0.60;;;22.00;99.90;;;;;;5033187;28;20054;-70
2022/09/10 06:12:51;;;;;;;1.40;0.93;;;22.00;99.90;;;;;;5033180;28;20040;-67
2022/09/10 06:15:18;;;;;;;0.77;0.65;;;22.10;99.90;;;;;;5015723;28;20121;-68
2022/09/10 06:17:44;;;;;;;0.70;0.70;;;22.10;99.90;;;;;;5015866;28;20044;-70
2022/09/10 06:20:11;;;;;;;1.33;0.70;;;22.10;99.90;;;;;;5015863;28;20022;-69
2022/09/10 06:22:37;;;;;;;1.40;0.80;;;22.20;99.90;;;;;;5032962;28;20057;-71
2022/09/10 06:25:03;;;;;;;0.80;0.80;;;22.30;99.90;;;;;;5015447;28;20028;-68
2022/09/10 06:27:29;;;;;;;1.35;1.00;;;22.40;99.90;;;;;;5032892;28;20151;-68
2022/09/10 06:29:55;;;;;;;1.02;0.93;;;22.40;99.90;;;;;;5033041;28;20049;-67
2022/09/10 06:32:21;;;;;;;1.65;0.90;;;22.40;99.90;;;;;;5036962;28;20026;-67
2022/09/10 06:34:47;;;;;;;2.28;1.30;;;22.40;99.90;;;;;;5036947;28;20112;-69
2022/09/10 06:37:13;;;;;;;1.52;1.13;;;22.50;99.90;;;;;;5037258;28;20464;-69
2022/09/10 06:39:39;;;;;;;2.15;1.10;;;22.60;99.90;;;;;;5036773;28;20018;-70
2022/09/10 06:42:05;;;;;;;1.52;1.30;;;22.70;99.90;;;;;;5036701;28;20017;-68
2022/09/10 06:44:31;;;;;;;1.15;0.98;;;22.70;99.90;;;;;;5036866;28;20021;-70
2022/09/10 06:46:57;;;;;;;1.30;1.20;;;22.90;99.90;;;;;;5019267;28;20038;-68
2022/09/10 06:49:23;;;;;;;1.02;0.93;;;23.10;99.90;;;;;;5036766;28;20078;-67
2022/09/10 06:51:49;;;;;;;1.25;1.15;;;23.30;99.90;;;;;;5037207;28;20025;-67
2022/09/10 06:54:16;;;;;;;1.35;1.20;;;23.40;99.90;;;;;;5019126;28;20426;-69
2022/09/10 06:56:42;;;;;;;2.83;1.40;;;23.50;99.90;;;;;;5036237;28;20045;-71
2022/09/10 06:59:08;;;;;;;2.40;1.05;;;23.50;99.90;;;;;;5036825;28;20032;-70
2022/09/10 07:01:34;;;;;;;1.77;1.02;;;23.70;99.90;;;;;;5036706;28;20025;-68
2022/09/10 07:04:01;;;;;;;1.10;1.00;;;24.00;99.90;;;;;;5035785;28;20481;-67
2022/09/10 07:06:33;;;;;;;1.42;1.10;;;25.80;99.90;;;;;;5018921;28;20120;-69
2022/09/10 07:08:59;;;;;;;2.10;1.00;;;28.10;99.90;;;;;;5018770;28;20025;-71
2022/09/10 07:11:27;;;;;;;1.73;1.23;;;30.00;96.50;;;;;;5018939;28;20475;-71
2022/09/10 07:13:53;;;;;;;1.45;1.35;;;31.70;92.80;;;;;;5018470;28;20021;-68
2022/09/10 07:16:20;;;;;;;2.55;1.98;;;33.30;86.40;;;;;;5018341;28;20024;-69
2022/09/10 07:18:56;;;;;;;8.65;2.92;;;34.50;77.30;;;;;;5018727;28;20017;-72
2022/09/10 07:21:24;;;;;;;24.33;3.70;;;35.80;67.80;;;;;;5018456;28;20017;-67
2022/09/10 07:23:54;;;;;;;2.42;1.80;;;36.60;66.50;;;;;;5036285;28;20025;-68
2022/09/10 07:26:20;;;;;;;1.85;1.50;;;37.10;63.30;;;;;;5018399;28;20399;-68
2022/09/10 07:28:46;;;;;;;1.40;0.90;;;36.70;61.10;;;;;;5036055;28;20018;-69
2022/09/10 07:31:16;;;;;;;1.50;0.75;;;37.00;56.00;;;;;;5035990;28;20411;-71
2022/09/10 07:33:42;;;;;;;0.75;0.60;;;37.10;54.90;;;;;;5018328;28;20032;-66
2022/09/10 07:36:10;;;;;;;0.38;0.30;;;37.40;53.50;;;;;;5035866;28;20105;-70
2022/09/10 07:38:36;;;;;;;1.45;0.30;;;37.60;52.50;;;;;;5035521;28;20024;-73
2022/09/10 07:41:03;;;;;;;0.63;0.30;;;37.40;51.30;;;;;;5035747;28;20039;-68
2022/09/10 07:43:29;;;;;;;12.70;1.73;;;37.80;51.50;;;;;;5035826;28;20026;-72
2022/09/10 07:45:55;;;;;;;3.97;0.68;;;38.40;50.90;;;;;;5018194;28;20032;-73
2022/09/10 07:48:21;;;;;;;2.47;0.40;;;38.90;49.00;;;;;;5035765;28;20048;-70
2022/09/10 07:50:47;;;;;;;0.68;0.40;;;38.90;48.70;;;;;;5017859;28;20023;-67
2022/09/10 07:53:13;;;;;;;0.65;0.30;;;39.10;47.20;;;;;;5017945;28;20075;-69
2022/09/10 07:55:39;;;;;;;1.15;0.40;;;38.60;47.40;;;;;;5017945;28;20058;-70
2022/09/10 07:58:05;;;;;;;0.80;0.45;;;38.40;48.30;;;;;;5017938;28;20032;-70
2022/09/10 08:00:30;;;;;;;0.30;0.30;;;38.40;47.80;;;;;;5035300;28;20097;-71
2022/09/10 08:02:56;;;;;;;0.60;0.45;;;38.60;48.00;;;;;;5017871;28;20156;-68
2022/09/10 08:05:22;;;;;;;0.52;0.30;;;39.10;47.40;;;;;;5017867;28;20032;-69
2022/09/10 08:07:52;;;;;;;1.10;0.38;;;39.20;48.30;;;;;;5017279;28;20033;-68
2022/09/10 08:10:18;;;;;;;0.52;0.40;;;39.20;46.60;;;;;;5017934;28;20025;-69
2022/09/10 08:12:44;;;;;;;0.47;0.30;;;38.90;47.50;;;;;;5017234;28;20025;-70
2022/09/10 08:15:10;;;;;;;0.40;0.30;;;38.40;46.50;;;;;;5035437;28;20371;-68
2022/09/10 08:17:37;;;;;;;1.05;0.40;;;38.30;47.50;;;;;;5017580;28;20037;-68
2022/09/10 08:20:07;;;;;;;0.80;0.22;;;38.30;47.40;;;;;;5017340;28;20045;-69
2022/09/10 08:22:33;;;;;;;0.77;0.40;;;38.40;46.70;;;;;;5017311;28;20025;-68
2022/09/10 08:25:00;;;;;;;0.30;0.28;;;38.60;46.70;;;;;;5017666;28;20469;-70
2022/09/10 08:27:26;;;;;;;1.80;0.70;;;38.60;47.70;;;;;;5017128;28;20475;-69
2022/09/10 08:29:53;;;;;;;1.65;0.47;;;38.30;46.10;;;;;;5017124;28;20083;-69
2022/09/10 08:32:22;;;;;;;0.65;0.40;;;37.60;46.40;;;;;;5017237;28;20108;-70
2022/09/10 08:34:48;;;;;;;0.50;0.50;;;37.00;47.10;;;;;;5017445;28;20499;-69
2022/09/10 08:37:15;;;;;;;0.47;0.30;;;36.50;47.40;;;;;;5034741;28;20065;-69
2022/09/10 08:39:40;;;;;;;0.73;0.40;;;35.80;50.00;;;;;;5016787;28;20048;-70
2022/09/10 08:42:21;;;;;;;0.50;0.40;;;35.60;47.50;;;;;;5034814;28;20511;-71
2022/09/10 08:44:56;;;;;;;0.57;0.30;;;34.30;49.70;;;;;;5016985;28;20430;-70
2022/09/10 08:47:43;;;;;;;0.82;0.47;;;32.50;51.00;;;;;;5034465;28;20523;-68
2022/09/10 08:50:21;;;;;;;1.30;0.40;;;32.20;52.40;;;;;;5016896;28;20551;-71
2022/09/10 08:52:52;;;;;;;0.32;0.32;;;32.60;53.10;;;;;;5016135;28;20085;-70
2022/09/10 08:55:18;;;;;;;0.47;0.30;;;32.50;52.60;;;;;;5016433;28;20480;-70
2022/09/10 08:57:53;;;;;;;0.30;0.30;;;32.40;52.40;;;;;;5034204;28;20033;-69
2022/09/10 09:00:25;;;;;;;0.50;0.30;;;32.20;52.80;;;;;;5016830;28;20028;-67
2022/09/10 09:03:04;;;;;;;0.52;0.30;;;32.20;53.60;;;;;;5016696;28;20068;-70
2022/09/10 09:05:44;;;;;;;0.63;0.40;;;31.70;52.50;;;;;;5016704;28;20491;-70
2022/09/10 09:08:15;;;;;;;1.70;0.40;;;31.50;53.40;;;;;;5016396;28;20392;-70
2022/09/10 09:10:47;;;;;;;0.73;0.30;;;31.30;52.70;;;;;;5016629;28;20022;-69
2022/09/10 09:13:21;;;;;;;0.70;0.30;;;31.00;54.50;;;;;;5016139;28;20541;-68
2022/09/10 09:16:01;;;;;;;1.33;0.30;;;30.90;54.60;;;;;;5034020;28;20021;-68
2022/09/10 09:18:44;;;;;;;0.93;0.30;;;31.00;53.70;;;;;;5033818;28;20112;-70
2022/09/10 09:21:16;;;;;;;0.73;0.40;;;31.00;55.00;;;;;;5033759;28;20537;-68
2022/09/10 09:23:53;;;;;;;0.38;0.38;;;31.40;57.50;;;;;;5033796;28;20502;-68
2022/09/10 09:26:23;;;;;;;0.30;0.30;;;31.30;55.50;;;;;;5033868;28;20554;-71
2022/09/10 09:28:59;;;;;;;0.77;0.40;;;31.40;54.20;;;;;;5016333;28;20017;-69
2022/09/10 09:31:29;;;;;;;0.40;0.30;;;31.30;54.70;;;;;;5033852;28;20025;-69
2022/09/10 09:34:19;;;;;;;0.85;0.50;;;31.30;54.20;;;;;;5016172;28;20025;-69
2022/09/10 09:36:51;;;;;;;0.90;0.40;;;31.20;54.30;;;;;;4983523;28;20042;-70
2022/09/10 09:39:35;;;;;;;1.00;0.40;;;31.70;55.40;;;;;;5033582;28;20024;-67
2022/09/10 09:42:41;;;;;;;0.45;0.40;;;32.10;55.00;;;;;;5016297;28;20022;-68
2022/09/10 09:45:24;;;;;;;0.70;0.55;;;32.30;55.80;;;;;;5033969;28;20411;-69
2022/09/10 09:47:51;;;;;;;1.75;0.50;;;32.20;57.40;;;;;;5016023;28;20032;-70
2022/09/10 09:50:19;;;;;;;1.27;0.50;;;32.20;55.50;;;;;;5015611;28;20037;-69
2022/09/10 09:52:46;;;;;;;0.50;0.30;;;32.10;55.10;;;;;;5016212;28;20025;-68
2022/09/10 09:55:36;;;;;;;0.35;0.22;;;31.90;55.50;;;;;;5033123;28;20467;-68
2022/09/10 09:58:21;;;;;;;0.60;0.40;;;31.70;54.90;;;;;;5033361;28;20083;-70
2022/09/10 10:01:05;;;;;;;0.50;0.50;;;31.50;53.70;;;;;;5016022;28;20052;-69
2022/09/10 10:03:47;;;;;;;3.30;0.40;;;31.30;53.50;;;;;;5015747;28;20026;-68
2022/09/10 10:06:14;;;;;;;0.60;0.30;;;31.10;54.80;;;;;;5015932;28;20022;-69
2022/09/10 10:08:42;;;;;;;0.30;0.30;;;31.10;55.00;;;;;;5015843;28;20464;-71
2022/09/10 10:11:11;;;;;;;0.30;0.30;;;31.00;54.70;;;;;;5015687;28;20022;-68
2022/09/10 10:13:45;;;;;;;0.75;0.40;;;30.80;55.90;;;;;;5015451;28;20025;-70
2022/09/10 10:16:26;;;;;;;1.05;0.60;;;30.60;55.10;;;;;;5015754;28;20037;-70
2022/09/10 10:18:52;;;;;;;1.05;0.50;;;30.50;55.70;;;;;;5015836;28;20375;-70
2022/09/10 10:21:21;;;;;;;0.40;0.40;;;30.40;56.70;;;;;;5033414;28;20049;-69
2022/09/10 10:23:48;;;;;;;0.57;0.30;;;31.00;56.00;;;;;;5015322;28;20025;-69
2022/09/10 10:26:49;;;;;;;1.17;0.40;;;31.20;55.60;;;;;;5033340;28;20376;-70
2022/09/10 10:29:19;;;;;;;0.30;0.30;;;31.10;54.90;;;;;;5015389;28;20032;-68
2022/09/10 10:31:47;;;;;;;0.47;0.30;;;31.10;54.70;;;;;;5015595;28;20045;-68
2022/09/10 10:34:31;;;;;;;0.30;0.20;;;31.40;53.60;;;;;;5032917;28;20024;-69
2022/09/10 10:37:00;;;;;;;2.40;0.40;;;31.80;53.80;;;;;;5015500;28;20503;-68
2022/09/10 10:39:35;;;;;;;0.40;0.38;;;32.40;53.80;;;;;;5015321;28;20120;-69
2022/09/10 10:42:20;;;;;;;1.65;0.40;;;32.90;52.00;;;;;;5015505;28;20483;-67
2022/09/10 10:45:07;;;;;;;0.30;0.25;;;32.80;52.20;;;;;;5015141;28;20026;-68
2022/09/10 10:47:38;;;;;;;0.70;0.40;;;32.60;52.60;;;;;;5015566;28;20124;-70
2022/09/10 10:50:20;;;;;;;0.63;0.35;;;32.30;52.00;;;;;;5032657;28;20025;-68
2022/09/10 10:53:14;;;;;;;3.80;0.60;;;31.60;52.60;;;;;;5032866;28;20120;-68
2022/09/10 10:56:05;;;;;;;1.42;0.50;;;31.20;55.70;;;;;;5032603;28;20128;-70
2022/09/10 10:59:06;;;;;;;0.50;0.50;;;31.50;56.90;;;;;;5032699;28;20068;-68
2022/09/10 11:01:46;;;;;;;1.30;0.30;;;32.20;55.00;;;;;;4994598;28;20033;-70
2022/09/10 11:04:28;;;;;;;1.90;0.52;;;32.90;55.70;;;;;;5015092;28;20026;-71
2022/09/10 11:07:20;;;;;;;0.45;0.30;;;32.60;50.40;;;;;;5032659;28;20033;-67
2022/09/10 11:10:13;;;;;;;0.40;0.30;;;32.50;51.80;;;;;;5014556;28;20036;-69
2022/09/10 11:12:50;;;;;;;0.95;0.35;;;32.60;51.30;;;;;;5015009;28;20468;-71
2022/09/10 11:15:38;;;;;;;0.10;0.10;;;32.30;50.90;;;;;;5032589;28;20018;-68
2022/09/10 11:18:27;;;;;;;1.13;0.30;;;32.30;50.10;;;;;;5034610;28;20029;-67
2022/09/10 11:21:10;;;;;;;0.20;0.20;;;32.50;54.10;;;;;;5018974;28;20025;-70
2022/09/10 11:23:50;;;;;;;1.20;0.40;;;32.10;54.60;;;;;;5018577;28;20459;-70
2022/09/10 11:26:44;;;;;;;0.75;0.68;;;32.00;55.30;;;;;;5036069;28;20025;-69
2022/09/10 11:29:27;;;;;;;1.27;0.40;;;32.30;54.40;;;;;;5018904;28;20018;-68
2022/09/10 11:32:15;;;;;;;0.60;0.50;;;32.10;52.20;;;;;;5035884;28;20026;-68
2022/09/10 11:34:46;;;;;;;2.50;0.85;;;31.60;54.50;;;;;;5018428;28;20112;-69
2022/09/10 11:37:47;;;;;;;1.23;0.70;;;31.60;55.00;;;;;;5018469;28;20034;-68
2022/09/10 11:40:33;;;;;;;0.65;0.60;;;31.40;54.70;;;;;;4936425;29;20068;-68
2022/09/10 11:43:06;;;;;;;1.17;0.50;;;31.90;55.30;;;;;;5011696;28;20038;-67
2022/09/10 11:45:43;;;;;;;0.40;0.30;;;31.60;54.50;;;;;;5018267;28;20112;-68
2022/09/10 11:48:50;;;;;;;1.17;0.60;;;31.50;55.80;;;;;;5018517;28;20025;-68
2022/09/10 11:51:24;;;;;;;0.85;0.40;;;31.70;55.90;;;;;;4998020;28;20041;-71
2022/09/10 11:53:51;;;;;;;0.30;0.30;;;31.80;53.10;;;;;;5017886;28;20460;-67
2022/09/10 11:56:48;;;;;;;0.70;0.43;;;31.70;52.50;;;;;;5017564;28;20474;-69
2022/09/10 11:59:35;;;;;;;0.40;0.20;;;31.60;53.40;;;;;;5035249;28;20129;-69
2022/09/10 12:02:24;;;;;;;1.00;0.43;;;31.60;52.70;;;;;;5017725;28;20033;-68
2022/09/10 12:04:53;;;;;;;0.90;0.50;;;31.50;52.90;;;;;;5035314;28;20017;-70
2022/09/10 12:07:52;;;;;;;1.23;0.50;;;31.30;53.90;;;;;;5035300;28;20029;-68
2022/09/10 12:10:47;;;;;;;0.70;0.60;;;31.10;54.60;;;;;;5035300;28;20021;-69
2022/09/10 12:13:16;;;;;;;0.88;0.50;;;31.10;55.70;;;;;;5035531;28;20029;-69
2022/09/10 12:15:54;;;;;;;0.60;0.50;;;31.10;54.20;;;;;;5035094;28;20021;-69
2022/09/10 12:18:40;;;;;;;0.68;0.45;;;31.00;53.60;;;;;;5034963;28;20044;-68
2022/09/10 12:21:20;;;;;;;0.85;0.40;;;31.10;54.70;;;;;;5035062;28;20071;-70
2022/09/10 12:23:46;;;;;;;1.75;0.40;;;31.20;54.30;;;;;;5017240;28;20120;-69
2022/09/10 12:26:18;;;;;;;0.82;0.40;;;30.80;52.20;;;;;;5035078;28;20045;-69
2022/09/10 12:28:48;;;;;;;0.70;0.40;;;30.40;54.10;;;;;;5034737;28;20483;-70
2022/09/10 12:31:15;;;;;;;1.02;0.35;;;30.20;54.00;;;;;;5034821;28;20160;-70
2022/09/10 12:33:41;;;;;;;0.73;0.50;;;30.30;53.20;;;;;;5034852;28;20452;-70
2022/09/10 12:36:07;;;;;;;0.40;0.40;;;30.90;53.20;;;;;;5034712;28;20028;-67
2022/09/10 12:38:52;;;;;;;0.30;0.30;;;30.90;53.20;;;;;;5034466;28;20026;-69
2022/09/10 12:41:24;;;;;;;0.35;0.30;;;31.20;53.90;;;;;;5016917;28;20464;-69
2022/09/10 12:44:20;;;;;;;0.73;0.40;;;31.80;54.60;;;;;;5016957;28;20025;-69
2022/09/10 12:46:46;;;;;;;0.40;0.40;;;32.30;53.20;;;;;;5016107;28;20060;-68
2022/09/10 12:49:15;;;;;;;1.38;0.45;;;32.50;54.70;;;;;;5016849;28;20460;-70
2022/09/10 12:51:58;;;;;;;0.30;0.30;;;32.60;52.40;;;;;;5034628;28;20105;-69
2022/09/10 12:54:42;;;;;;;;;;;32.20;51.10;;;;;;5017411;28;20324;-70
2022/09/10 12:57:24;;;;;;;2.55;0.88;;;32.10;52.00;;;;;;5016221;28;19948;-68
2022/09/10 12:59:53;;;;;;;0.70;0.50;;;31.80;53.30;;;;;;5033507;28;20062;-70
2022/09/10 13:02:42;;;;;;;1.20;0.70;;;31.80;54.00;;;;;;5017004;28;20459;-70
2022/09/10 13:05:28;;;;;;;1.02;0.52;;;31.90;51.30;;;;;;4978756;28;20033;-68
2022/09/10 13:08:08;;;;;;;0.88;0.77;;;31.60;53.10;;;;;;5016655;28;20025;-68